Time;durP1;ratioP1;P1;durP2;ratioP2;P2;SDS_P1;SDS_P2;PMS_P1;PMS_P2;Temp;Humidity;BMP_temperature;BMP_pressure;BME280_temperature;BME280_humidity;BME280_pressure;Samples;Min_cycle;Max_cycle;Signal;HPM_P1;HPM_P2
2023/01/03 00:00:49;;;;;;;10.25;3.00;;;3.60;99.90;;;;;;5050595;28;20041;-82
2023/01/03 00:03:16;;;;;;;6.38;2.97;;;3.60;99.90;;;;;;5050458;28;20049;-83
2023/01/03 00:05:46;;;;;;;8.52;3.05;;;3.70;99.90;;;;;;5048869;28;20079;-83
2023/01/03 00:08:14;;;;;;;11.93;3.15;;;3.70;99.90;;;;;;5049652;28;20107;-82
2023/01/03 00:10:40;;;;;;;6.93;3.03;;;3.70;99.90;;;;;;5051334;28;20037;-82
2023/01/03 00:13:06;;;;;;;8.23;2.70;;;3.80;99.90;;;;;;5033782;28;20529;-82
2023/01/03 00:15:34;;;;;;;7.55;2.95;;;3.80;99.90;;;;;;5033067;28;20033;-82
2023/01/03 00:18:00;;;;;;;6.63;2.85;;;3.80;99.90;;;;;;5047856;28;20182;-83
2023/01/03 00:20:26;;;;;;;7.28;2.85;;;3.80;99.90;;;;;;5043071;28;20072;-82
2023/01/03 00:22:51;;;;;;;5.25;2.70;;;3.80;99.90;;;;;;5048658;28;20033;-82
2023/01/03 00:25:17;;;;;;;6.53;2.90;;;3.90;99.90;;;;;;5048592;28;20033;-82
2023/01/03 00:27:42;;;;;;;5.40;2.70;;;3.80;99.90;;;;;;5049209;28;20137;-83
2023/01/03 00:30:08;;;;;;;8.02;3.05;;;3.80;99.90;;;;;;5048860;28;20036;-82
2023/01/03 00:32:34;;;;;;;7.35;2.28;;;3.80;99.90;;;;;;5048866;28;20037;-82
2023/01/03 00:35:00;;;;;;;5.25;2.55;;;3.80;99.90;;;;;;5049678;28;20120;-82
2023/01/03 00:37:25;;;;;;;8.57;3.00;;;3.80;99.90;;;;;;5048038;28;20119;-82
2023/01/03 00:39:51;;;;;;;4.28;2.13;;;3.80;99.90;;;;;;5048685;28;20043;-82
2023/01/03 00:42:16;;;;;;;9.70;2.78;;;3.80;99.90;;;;;;5049287;28;20132;-82
2023/01/03 00:44:42;;;;;;;7.25;2.13;;;3.70;99.90;;;;;;5033146;28;20035;-82
2023/01/03 00:47:07;;;;;;;6.60;2.35;;;3.70;99.90;;;;;;5050118;28;20409;-82
2023/01/03 00:49:33;;;;;;;5.75;2.33;;;3.60;99.90;;;;;;5046722;28;20398;-82
2023/01/03 00:51:59;;;;;;;7.68;2.42;;;3.60;99.90;;;;;;5039455;28;20037;-82
2023/01/03 00:54:24;;;;;;;6.10;2.50;;;3.70;99.90;;;;;;5047914;28;20071;-82
2023/01/03 00:56:51;;;;;;;8.98;2.80;;;3.60;99.90;;;;;;5050031;28;20033;-82
2023/01/03 00:59:18;;;;;;;5.65;2.67;;;3.70;99.90;;;;;;5047934;28;20036;-82
2023/01/03 01:01:50;;;;;;;4.70;2.33;;;3.70;99.90;;;;;;5049660;28;20055;-82
2023/01/03 01:04:26;;;;;;;8.45;2.90;;;3.70;99.90;;;;;;5044844;28;20109;-82
2023/01/03 01:06:58;;;;;;;8.63;3.00;;;3.70;99.90;;;;;;5049734;28;20420;-82
2023/01/03 01:09:26;;;;;;;5.93;2.80;;;3.70;99.90;;;;;;5031778;28;20040;-82
2023/01/03 01:11:53;;;;;;;5.47;2.65;;;3.70;99.90;;;;;;5027012;28;20033;-82
2023/01/03 01:14:21;;;;;;;7.57;2.88;;;3.80;99.90;;;;;;5047518;28;20496;-81
2023/01/03 01:16:52;;;;;;;12.95;3.20;;;3.80;99.90;;;;;;5050355;28;20494;-82
2023/01/03 01:19:20;;;;;;;6.00;2.90;;;3.70;99.90;;;;;;5048703;28;20041;-82
2023/01/03 01:21:46;;;;;;;8.55;3.45;;;3.80;99.90;;;;;;5049459;28;20112;-82
2023/01/03 01:24:13;;;;;;;7.85;2.80;;;3.80;99.90;;;;;;5046528;28;20475;-82
2023/01/03 01:26:39;;;;;;;7.45;3.15;;;3.80;99.90;;;;;;5051906;28;20033;-82
2023/01/03 01:29:05;;;;;;;8.25;3.08;;;3.80;99.90;;;;;;5025408;28;20423;-82
2023/01/03 01:31:31;;;;;;;5.00;2.65;;;3.90;99.90;;;;;;5037891;28;20037;-82
2023/01/03 01:33:57;;;;;;;7.88;2.90;;;3.80;99.90;;;;;;5054776;28;20045;-82
2023/01/03 01:36:25;;;;;;;8.63;3.72;;;3.80;99.90;;;;;;5053349;28;20101;-82
2023/01/03 01:39:18;;;;;;;7.32;2.70;;;3.90;99.90;;;;;;5052004;28;20037;-82
2023/01/03 01:44:58;;;;;;;5.45;2.88;;;4.00;99.90;;;;;;5046501;28;20045;-82
2023/01/03 01:47:33;;;;;;;9.02;2.90;;;4.00;99.90;;;;;;5053281;28;20057;-83
2023/01/03 01:50:11;;;;;;;9.82;3.72;;;4.00;99.90;;;;;;5053088;28;20041;-82
2023/01/03 01:52:40;;;;;;;5.90;3.08;;;4.00;99.90;;;;;;5044251;28;20048;-82
2023/01/03 01:55:09;;;;;;;7.60;3.35;;;4.00;99.90;;;;;;5036585;28;20048;-82
2023/01/03 01:57:37;;;;;;;6.90;3.40;;;3.90;99.90;;;;;;5035419;28;20040;-82
2023/01/03 02:00:05;;;;;;;6.20;2.95;;;3.80;99.90;;;;;;5045249;28;20079;-82
2023/01/03 02:02:31;;;;;;;6.57;3.08;;;3.80;99.90;;;;;;5051831;28;20082;-82
2023/01/03 02:04:58;;;;;;;5.45;3.13;;;3.80;99.90;;;;;;5051924;28;20033;-82
2023/01/03 02:07:23;;;;;;;6.85;3.78;;;3.70;99.90;;;;;;5036093;28;20068;-82
2023/01/03 02:09:54;;;;;;;10.52;3.38;;;3.70;99.90;;;;;;5051462;28;20536;-82
2023/01/03 02:15:39;;;;;;;7.47;3.45;;;3.70;99.90;;;;;;5051895;28;20049;-82
2023/01/03 02:18:22;;;;;;;9.75;3.20;;;3.70;99.90;;;;;;5035991;28;20442;-82
2023/01/03 02:21:29;;;;;;;8.65;3.20;;;3.70;99.90;;;;;;5053876;28;20123;-82
2023/01/03 02:24:36;;;;;;;6.88;2.65;;;3.70;99.90;;;;;;5049005;28;20182;-82
2023/01/03 02:27:23;;;;;;;7.60;3.47;;;3.70;99.90;;;;;;5034704;28;20094;-82
2023/01/03 02:30:26;;;;;;;10.35;2.90;;;3.70;99.90;;;;;;5053086;28;20060;-83
2023/01/03 02:33:12;;;;;;;6.75;3.00;;;3.70;99.90;;;;;;5053370;28;20041;-83
2023/01/03 02:36:05;;;;;;;5.85;3.60;;;3.70;99.90;;;;;;5046466;28;20392;-82
2023/01/03 02:39:02;;;;;;;9.90;3.47;;;3.70;99.90;;;;;;5047857;28;20468;-82
2023/01/03 02:41:44;;;;;;;9.30;3.50;;;3.70;99.90;;;;;;5020149;28;20131;-83
2023/01/03 02:44:19;;;;;;;6.70;3.33;;;3.60;99.90;;;;;;5036236;28;20095;-82
2023/01/03 02:46:50;;;;;;;9.10;3.50;;;3.60;99.90;;;;;;5053250;28;20417;-82
2023/01/03 02:49:33;;;;;;;7.50;3.13;;;3.50;99.90;;;;;;5049940;28;20406;-82
2023/01/03 02:52:03;;;;;;;6.47;3.38;;;3.50;99.90;;;;;;5048268;28;20037;-83
2023/01/03 02:54:37;;;;;;;10.25;3.45;;;3.40;99.90;;;;;;5052504;28;20491;-82
2023/01/03 02:57:13;;;;;;;;;;;3.30;99.90;;;;;;5047650;28;20491;-82
2023/01/03 02:59:48;;;;;;;7.03;3.10;;;3.30;99.90;;;;;;5050752;28;19993;-82
2023/01/03 03:02:16;;;;;;;4.95;2.78;;;3.20;99.90;;;;;;5046879;28;20041;-82
2023/01/03 03:04:43;;;;;;;4.05;2.65;;;3.10;99.90;;;;;;5052659;28;20118;-82
2023/01/03 03:07:14;;;;;;;5.72;3.00;;;3.10;99.90;;;;;;5035305;28;20407;-82
2023/01/03 03:15:14;;;;;;;4.85;2.92;;;3.00;99.90;;;;;;5050877;28;20053;-82
2023/01/03 03:17:41;;;;;;;10.20;3.15;;;2.90;99.90;;;;;;5035553;28;20041;-82
2023/01/03 03:25:52;;;;;;;7.40;3.10;;;2.80;99.90;;;;;;5048907;28;20128;-82
2023/01/03 03:28:34;;;;;;;8.10;3.08;;;2.70;99.90;;;;;;5050161;28;20037;-83
2023/01/03 03:31:37;;;;;;;5.47;2.90;;;2.70;99.90;;;;;;5052238;28;20429;-82
2023/01/03 03:34:24;;;;;;;9.43;3.30;;;2.60;99.90;;;;;;5047148;28;20072;-82
2023/01/03 03:37:09;;;;;;;5.32;2.85;;;2.60;99.90;;;;;;5045484;28;20175;-82
2023/01/03 03:45:33;;;;;;;5.30;3.03;;;2.50;99.90;;;;;;5050281;28;20110;-82
2023/01/03 03:48:29;;;;;;;7.60;3.33;;;2.40;99.90;;;;;;5045961;28;20446;-83
2023/01/03 03:51:13;;;;;;;6.82;3.17;;;2.40;99.90;;;;;;5030251;28;20252;-82
2023/01/03 03:53:41;;;;;;;6.57;2.92;;;2.40;99.90;;;;;;5022292;28;20077;-82
2023/01/03 03:56:11;;;;;;;11.27;3.70;;;2.40;99.90;;;;;;5048613;28;20445;-83
2023/01/03 03:58:42;;;;;;;6.50;3.40;;;2.40;99.90;;;;;;5050722;28;20060;-82
2023/01/03 04:01:12;;;;;;;10.05;3.47;;;2.30;99.90;;;;;;5044066;28;20462;-83
2023/01/03 04:03:41;;;;;;;6.65;3.67;;;2.40;99.90;;;;;;5050792;28;20041;-83
2023/01/03 04:06:26;;;;;;;8.00;3.38;;;2.30;99.90;;;;;;5050769;28;20045;-83
2023/01/03 04:08:51;;;;;;;15.95;4.43;;;2.30;99.90;;;;;;5035010;28;20037;-83
2023/01/03 04:11:17;;;;;;;7.75;4.47;;;2.20;99.90;;;;;;5033688;28;20048;-83
2023/01/03 04:13:42;;;;;;;10.70;4.07;;;2.20;99.90;;;;;;5032936;28;20041;-83
2023/01/03 04:16:08;;;;;;;9.70;4.97;;;2.20;99.90;;;;;;5033572;28;20045;-83
2023/01/03 04:18:34;;;;;;;7.47;4.95;;;2.20;99.90;;;;;;5050440;28;20071;-83
2023/01/03 04:20:59;;;;;;;11.13;4.60;;;2.20;99.90;;;;;;5050767;28;20099;-83
2023/01/03 04:23:25;;;;;;;8.98;5.55;;;2.20;99.90;;;;;;5051295;28;20057;-83
2023/01/03 04:25:51;;;;;;;10.10;5.32;;;2.10;99.90;;;;;;5047642;28;20127;-83
2023/01/03 04:28:17;;;;;;;9.05;5.30;;;2.10;99.90;;;;;;5046705;28;20041;-83
2023/01/03 04:30:43;;;;;;;13.35;5.63;;;2.10;99.90;;;;;;5050997;28;20039;-83
2023/01/03 04:33:09;;;;;;;10.70;5.35;;;2.10;99.90;;;;;;5033994;28;20148;-84
2023/01/03 04:35:35;;;;;;;8.80;5.25;;;2.20;99.90;;;;;;5048422;28;20120;-83
2023/01/03 04:38:01;;;;;;;10.82;5.65;;;2.20;99.90;;;;;;5049536;28;20086;-83
2023/01/03 04:40:26;;;;;;;9.80;5.70;;;2.20;99.90;;;;;;5050435;28;20456;-83
2023/01/03 04:45:37;;;;;;;16.63;6.82;;;2.30;99.90;;;;;;5043962;28;20327;-83
2023/01/03 04:48:03;;;;;;;10.98;6.78;;;2.30;99.90;;;;;;5031128;28;20384;-83
2023/01/03 04:50:30;;;;;;;13.05;7.45;;;2.30;99.90;;;;;;5047026;28;20040;-83
2023/01/03 04:52:55;;;;;;;15.50;8.15;;;2.30;99.90;;;;;;5050714;28;20433;-83
2023/01/03 04:55:21;;;;;;;14.60;7.75;;;2.40;99.90;;;;;;5034461;28;20097;-83
2023/01/03 04:57:46;;;;;;;15.73;8.68;;;2.40;99.90;;;;;;5050482;28;20123;-83
2023/01/03 05:00:13;;;;;;;14.38;8.45;;;2.40;99.90;;;;;;5033752;28;20094;-83
2023/01/03 05:02:38;;;;;;;13.23;8.00;;;2.50;99.90;;;;;;5050577;28;20037;-82
2023/01/03 05:05:05;;;;;;;15.15;9.02;;;2.50;99.90;;;;;;5050585;28;20040;-83
2023/01/03 05:07:30;;;;;;;15.07;8.40;;;2.50;99.90;;;;;;5034164;28;20037;-83
2023/01/03 05:09:56;;;;;;;15.93;8.60;;;2.60;99.90;;;;;;5051338;28;20199;-83
2023/01/03 05:12:21;;;;;;;18.45;9.93;;;2.60;99.90;;;;;;5043589;28;20043;-83
2023/01/03 05:14:47;;;;;;;18.70;10.38;;;2.70;99.90;;;;;;5051414;28;20411;-83
2023/01/03 05:17:12;;;;;;;19.15;10.15;;;2.70;99.90;;;;;;5031198;28;20128;-83
2023/01/03 05:25:48;;;;;;;14.45;9.40;;;2.70;99.90;;;;;;5051417;28;20066;-82
2023/01/03 05:27:55;;;;;;;17.92;10.25;;;2.80;99.90;;;;;;5046628;28;20125;-83
2023/01/03 05:30:21;;;;;;;18.75;10.13;;;2.80;99.90;;;;;;5052097;28;20048;-82
2023/01/03 05:32:46;;;;;;;19.52;9.77;;;2.80;99.90;;;;;;5032835;28;20055;-82
2023/01/03 05:35:12;;;;;;;21.35;10.27;;;2.80;99.90;;;;;;5032668;28;20528;-82
2023/01/03 05:37:37;;;;;;;19.02;10.10;;;2.80;99.90;;;;;;5052188;28;20048;-82
2023/01/03 05:40:03;;;;;;;18.75;10.15;;;2.80;99.90;;;;;;5051683;28;20422;-82
2023/01/03 05:42:29;;;;;;;19.70;10.80;;;2.80;99.90;;;;;;5050792;28;20550;-82
2023/01/03 05:44:54;;;;;;;18.60;10.50;;;2.90;99.90;;;;;;5047114;28;20143;-82
2023/01/03 05:47:20;;;;;;;18.63;10.93;;;2.80;99.90;;;;;;5050947;28;20123;-82
2023/01/03 05:49:45;;;;;;;23.55;11.30;;;2.90;99.90;;;;;;5033503;28;20087;-83
2023/01/03 05:52:11;;;;;;;22.35;11.38;;;2.90;99.90;;;;;;5051820;28;20087;-82
2023/01/03 05:54:36;;;;;;;18.95;10.93;;;2.90;99.90;;;;;;5049921;28;20107;-83
2023/01/03 05:57:02;;;;;;;18.55;10.50;;;2.80;99.90;;;;;;5049181;28;20041;-83
2023/01/03 05:59:27;;;;;;;22.38;10.95;;;2.90;99.90;;;;;;5035058;28;20482;-83
2023/01/03 06:01:53;;;;;;;21.95;11.20;;;2.90;99.90;;;;;;5033309;28;20041;-82
2023/01/03 06:04:18;;;;;;;18.27;11.23;;;2.90;99.90;;;;;;5051177;28;20037;-82
2023/01/03 06:06:44;;;;;;;19.30;10.55;;;2.80;99.90;;;;;;5050050;28;20470;-82
2023/01/03 06:09:10;;;;;;;23.55;11.63;;;2.90;99.90;;;;;;5050687;28;20041;-82
2023/01/03 06:11:35;;;;;;;23.45;11.60;;;2.90;99.90;;;;;;5031808;28;20112;-82
2023/01/03 06:14:01;;;;;;;18.83;10.65;;;2.90;99.90;;;;;;5050228;28;20414;-82
2023/01/03 06:19:10;;;;;;;;;;;2.90;99.90;;;;;;5054505;28;20498;-82
2023/01/03 06:21:37;;;;;;;20.13;11.20;;;2.90;99.90;;;;;;5051122;28;19916;-83
2023/01/03 06:24:03;;;;;;;23.75;13.27;;;2.80;99.90;;;;;;5037916;28;20049;-83
2023/01/03 06:26:28;;;;;;;21.30;12.35;;;2.80;99.90;;;;;;5054598;28;20036;-83
2023/01/03 06:28:54;;;;;;;23.38;12.48;;;2.80;99.90;;;;;;5054524;28;20037;-83
2023/01/03 06:31:19;;;;;;;25.45;12.80;;;2.80;99.90;;;;;;5053978;28;20063;-83
2023/01/03 06:33:45;;;;;;;22.92;12.75;;;2.70;99.90;;;;;;5053875;28;20055;-83
2023/01/03 06:36:13;;;;;;;24.55;13.13;;;2.70;99.90;;;;;;5053810;28;20033;-82
2023/01/03 06:38:39;;;;;;;23.65;13.43;;;2.60;99.90;;;;;;5036471;28;20133;-83
2023/01/03 06:41:05;;;;;;;22.65;13.13;;;2.60;99.90;;;;;;5037914;28;20087;-83
2023/01/03 06:43:31;;;;;;;27.00;13.98;;;2.50;99.90;;;;;;5053367;28;20453;-83
2023/01/03 06:54:23;;;;;;;24.98;13.05;;;2.40;99.90;;;;;;5052597;28;20053;-83
2023/01/03 06:56:50;;;;;;;26.45;14.02;;;2.30;99.90;;;;;;5036498;28;20032;-82
2023/01/03 06:59:17;;;;;;;25.35;14.38;;;2.30;99.90;;;;;;5054381;28;20628;-83
2023/01/03 07:01:44;;;;;;;24.23;13.52;;;2.30;99.90;;;;;;5036862;28;20395;-83
2023/01/03 07:04:10;;;;;;;27.73;14.48;;;2.20;99.90;;;;;;5052494;28;20037;-83
2023/01/03 07:06:35;;;;;;;27.40;14.43;;;2.20;99.90;;;;;;5054131;28;20035;-83
2023/01/03 07:09:01;;;;;;;25.35;15.10;;;2.20;99.90;;;;;;5053023;28;20395;-83
2023/01/03 07:11:26;;;;;;;28.48;13.93;;;2.10;99.90;;;;;;5053575;28;20032;-83
2023/01/03 07:13:58;;;;;;;24.38;13.50;;;2.10;99.90;;;;;;5035841;28;20048;-83
2023/01/03 07:16:37;;;;;;;27.00;15.00;;;2.10;99.90;;;;;;5052936;28;20071;-83
2023/01/03 07:19:04;;;;;;;26.88;14.82;;;2.00;99.90;;;;;;5053395;28;20051;-83
2023/01/03 07:21:31;;;;;;;26.90;14.07;;;2.00;99.90;;;;;;5046558;28;20121;-83
2023/01/03 07:24:00;;;;;;;30.60;16.23;;;1.90;99.90;;;;;;5035067;28;20491;-83
2023/01/03 07:26:26;;;;;;;24.73;14.70;;;1.90;99.90;;;;;;5052428;28;20029;-83
2023/01/03 07:28:52;;;;;;;30.63;16.60;;;1.90;99.90;;;;;;5052966;28;20040;-83
2023/01/03 07:31:17;;;;;;;30.17;16.05;;;1.90;99.90;;;;;;5036081;28;20033;-83
2023/01/03 07:33:44;;;;;;;28.42;15.90;;;1.90;99.90;;;;;;5052450;28;20076;-83
2023/01/03 07:36:11;;;;;;;31.67;16.17;;;1.80;99.90;;;;;;5030789;28;20047;-83
2023/01/03 07:38:38;;;;;;;26.08;15.73;;;1.80;99.90;;;;;;5046835;28;20041;-83
2023/01/03 07:41:07;;;;;;;29.58;16.20;;;1.80;99.90;;;;;;5049285;28;20056;-83
2023/01/03 07:43:36;;;;;;;30.05;16.20;;;1.80;99.90;;;;;;5051972;28;20045;-83
2023/01/03 07:46:14;;;;;;;29.27;16.13;;;1.80;99.90;;;;;;5052328;28;20083;-83
2023/01/03 07:48:40;;;;;;;29.95;16.25;;;1.80;99.90;;;;;;5043870;28;20032;-84
2023/01/03 07:51:07;;;;;;;26.27;15.23;;;1.80;99.90;;;;;;5040224;28;20507;-84
2023/01/03 07:53:34;;;;;;;27.20;14.75;;;1.80;99.90;;;;;;5045188;28;20064;-83
2023/01/03 07:56:05;;;;;;;28.17;16.48;;;1.80;99.90;;;;;;5051334;28;20051;-83
2023/01/03 07:58:31;;;;;;;29.80;16.30;;;1.80;99.90;;;;;;5031994;28;20032;-82
2023/01/03 08:01:02;;;;;;;26.17;15.10;;;1.80;99.90;;;;;;5040391;28;20052;-83
2023/01/03 08:03:28;;;;;;;28.85;15.63;;;1.70;99.90;;;;;;5037227;28;20453;-83
2023/01/03 08:05:53;;;;;;;28.80;15.85;;;1.70;99.90;;;;;;5024267;28;20124;-83
2023/01/03 08:08:19;;;;;;;28.30;15.65;;;1.70;99.90;;;;;;5041735;28;20037;-83
2023/01/03 08:13:28;;;;;;;;;;;1.70;99.90;;;;;;5045887;28;20398;-83
2023/01/03 08:15:55;;;;;;;26.55;13.90;;;1.70;99.90;;;;;;5053020;28;19921;-83
2023/01/03 08:18:23;;;;;;;27.95;14.63;;;1.60;99.90;;;;;;5037638;28;20049;-83
2023/01/03 08:20:50;;;;;;;25.38;15.30;;;1.60;99.90;;;;;;5038896;28;20036;-83
2023/01/03 08:23:16;;;;;;;25.00;14.48;;;1.60;99.90;;;;;;5041717;28;20093;-83
2023/01/03 08:25:41;;;;;;;27.52;14.68;;;1.70;99.90;;;;;;5048673;28;20090;-83
2023/01/03 08:28:08;;;;;;;27.15;14.95;;;1.70;99.90;;;;;;5045987;28;20037;-83
2023/01/03 08:30:41;;;;;;;29.75;15.10;;;1.70;99.90;;;;;;5052154;28;20098;-83
2023/01/03 08:33:10;;;;;;;24.10;14.82;;;1.80;99.90;;;;;;5052193;28;20064;-83
2023/01/03 08:35:38;;;;;;;26.38;15.02;;;1.90;99.90;;;;;;5036227;28;20063;-83
2023/01/03 08:38:08;;;;;;;28.88;16.52;;;1.80;99.90;;;;;;5052051;28;20513;-83
2023/01/03 08:40:36;;;;;;;26.30;15.40;;;1.80;99.90;;;;;;5064641;28;20107;-83
2023/01/03 08:43:04;;;;;;;29.92;16.02;;;1.80;99.90;;;;;;5052655;28;20049;-83
2023/01/03 08:45:30;;;;;;;29.17;15.60;;;1.80;99.90;;;;;;5044564;28;20029;-84
2023/01/03 08:48:00;;;;;;;26.83;16.23;;;1.90;99.90;;;;;;5052172;28;20040;-83
2023/01/03 08:50:26;;;;;;;24.35;15.77;;;1.90;99.90;;;;;;5050912;28;20048;-83
2023/01/03 08:52:52;;;;;;;32.20;17.52;;;1.90;99.90;;;;;;5050769;28;20487;-84
2023/01/03 08:55:18;;;;;;;30.52;17.55;;;1.90;99.90;;;;;;5048238;28;20045;-84
2023/01/03 08:57:43;;;;;;;26.60;16.17;;;1.90;99.90;;;;;;5049170;28;20040;-84
2023/01/03 09:00:10;;;;;;;28.25;17.02;;;1.90;99.90;;;;;;5050306;28;20513;-84
2023/01/03 09:02:35;;;;;;;27.63;17.05;;;1.90;99.90;;;;;;5050574;28;20048;-83
2023/01/03 09:05:01;;;;;;;27.00;16.73;;;1.80;99.90;;;;;;5049867;28;20029;-83
2023/01/03 09:07:27;;;;;;;26.40;16.92;;;1.80;99.90;;;;;;5052330;28;20103;-84
2023/01/03 09:09:52;;;;;;;46.97;17.63;;;1.80;99.90;;;;;;5051395;28;20092;-84
2023/01/03 09:12:18;;;;;;;71.25;17.23;;;1.80;99.90;;;;;;5053339;28;20041;-84
2023/01/03 09:14:43;;;;;;;45.07;16.47;;;1.70;99.90;;;;;;5051921;28;20041;-82
2023/01/03 09:17:09;;;;;;;44.88;14.77;;;1.70;99.90;;;;;;5033085;28;20041;-83
2023/01/03 09:19:34;;;;;;;38.83;15.20;;;1.60;99.90;;;;;;5050510;28;20445;-85
2023/01/03 09:22:00;;;;;;;33.45;13.63;;;1.60;99.90;;;;;;5047745;28;20021;-83
2023/01/03 09:24:26;;;;;;;42.10;15.18;;;1.60;99.90;;;;;;5041231;28;20067;-84
2023/01/03 09:26:51;;;;;;;49.08;14.48;;;1.60;99.90;;;;;;5034425;28;20121;-83
2023/01/03 09:29:17;;;;;;;23.15;13.23;;;1.60;99.90;;;;;;5046497;28;20091;-83
2023/01/03 09:31:42;;;;;;;28.33;12.35;;;1.60;99.90;;;;;;5052816;28;20029;-83
2023/01/03 09:34:08;;;;;;;33.05;13.10;;;1.70;99.90;;;;;;5051377;28;20502;-83
2023/01/03 09:36:35;;;;;;;36.65;13.20;;;1.70;99.90;;;;;;5047222;28;20041;-82
2023/01/03 09:39:02;;;;;;;36.43;13.90;;;1.80;99.90;;;;;;5039542;28;20048;-83
2023/01/03 09:41:27;;;;;;;23.42;12.98;;;1.70;99.90;;;;;;5034615;28;20438;-83
2023/01/03 09:44:03;;;;;;;45.22;13.82;;;1.70;99.90;;;;;;5050296;28;20121;-83
2023/01/03 09:46:31;;;;;;;37.50;12.38;;;1.80;99.90;;;;;;5031285;28;20487;-83
2023/01/03 09:48:58;;;;;;;37.35;12.77;;;1.80;99.90;;;;;;5054989;28;20114;-83
2023/01/03 10:03:44;;;;;;;60.53;15.18;;;2.20;99.90;;;;;;5045200;28;20045;-84
2023/01/03 10:06:31;;;;;;;50.63;15.45;;;2.20;99.90;;;;;;5049073;28;20049;-82
2023/01/03 10:09:05;;;;;;;32.63;14.38;;;2.30;99.90;;;;;;5037465;28;20037;-83
2023/01/03 10:11:45;;;;;;;48.40;14.98;;;2.40;99.90;;;;;;5029350;28;20044;-84
2023/01/03 10:14:34;;;;;;;43.08;14.85;;;2.40;99.90;;;;;;5053803;28;20055;-83
2023/01/03 10:17:00;;;;;;;54.30;14.40;;;2.50;99.90;;;;;;5046016;28;20519;-83
2023/01/03 10:19:42;;;;;;;40.75;14.88;;;2.50;99.90;;;;;;5049557;28;20045;-84
2023/01/03 10:22:29;;;;;;;40.05;13.95;;;2.60;99.90;;;;;;5050725;28;20048;-84
2023/01/03 10:25:16;;;;;;;53.92;15.25;;;2.60;99.90;;;;;;5031908;28;20407;-84
2023/01/03 10:27:53;;;;;;;50.88;15.63;;;2.70;99.90;;;;;;5052448;28;20106;-83
2023/01/03 10:30:47;;;;;;;56.10;16.00;;;2.70;99.90;;;;;;5036523;28;20037;-83
2023/01/03 10:33:22;;;;;;;65.97;17.25;;;2.80;99.90;;;;;;5053225;28;20041;-86
2023/01/03 10:35:47;;;;;;;56.25;16.98;;;2.80;99.90;;;;;;5030073;28;20051;-84
2023/01/03 10:38:15;;;;;;;62.15;16.75;;;2.80;99.90;;;;;;5052543;28;20037;-84
2023/01/03 10:40:44;;;;;;;63.08;17.50;;;2.90;99.90;;;;;;5036440;28;20094;-83
2023/01/03 10:43:26;;;;;;;52.55;18.35;;;2.90;99.90;;;;;;5037778;28;20064;-83
2023/01/03 10:46:00;;;;;;;56.88;18.38;;;2.90;99.90;;;;;;5047585;28;20037;-83
2023/01/03 10:48:37;;;;;;;39.10;17.08;;;3.00;99.90;;;;;;5032050;28;20097;-83
2023/01/03 10:51:05;;;;;;;43.65;20.05;;;3.10;99.90;;;;;;5022918;28;20102;-84
2023/01/03 10:53:41;;;;;;;48.50;19.35;;;3.10;99.90;;;;;;5044470;28;20056;-83
2023/01/03 10:56:07;;;;;;;44.33;21.42;;;3.20;99.90;;;;;;5044582;28;20052;-84
2023/01/03 10:58:33;;;;;;;50.95;21.30;;;3.40;99.90;;;;;;5036479;28;20037;-83
2023/01/03 11:01:18;;;;;;;53.00;20.38;;;3.40;99.90;;;;;;5038614;28;20049;-83
2023/01/03 11:03:43;;;;;;;56.30;20.95;;;3.50;99.90;;;;;;5035215;28;20049;-84
2023/01/03 11:06:14;;;;;;;42.30;20.13;;;3.50;99.90;;;;;;5048626;28;20033;-83
2023/01/03 11:08:48;;;;;;;46.40;20.38;;;3.60;99.90;;;;;;5030788;28;20663;-83
2023/01/03 11:11:35;;;;;;;48.00;22.02;;;3.60;99.90;;;;;;5050646;28;20528;-82
2023/01/03 11:14:07;;;;;;;43.67;20.77;;;3.70;99.90;;;;;;5043294;28;20048;-82
2023/01/03 11:16:33;;;;;;;48.05;21.92;;;3.80;99.90;;;;;;5046943;28;20049;-84
2023/01/03 11:19:01;;;;;;;48.17;22.52;;;3.90;99.90;;;;;;5051599;28;20041;-83
2023/01/03 11:21:30;;;;;;;50.70;23.45;;;3.90;99.90;;;;;;5046724;28;20422;-83
2023/01/03 11:24:21;;;;;;;53.35;23.48;;;4.00;99.90;;;;;;5044245;28;20038;-83
2023/01/03 11:27:20;;;;;;;56.17;24.10;;;4.00;99.90;;;;;;5031276;28;20075;-83
2023/01/03 11:30:21;;;;;;;55.70;24.25;;;4.10;99.90;;;;;;5048617;28;20067;-83
2023/01/03 11:33:18;;;;;;;57.22;24.15;;;4.20;99.90;;;;;;5063806;28;20041;-82
2023/01/03 11:36:10;;;;;;;58.70;25.77;;;4.20;99.90;;;;;;5032334;28;20093;-83
2023/01/03 11:38:49;;;;;;;56.67;24.88;;;4.30;99.90;;;;;;5024641;28;20407;-83
2023/01/03 11:41:52;;;;;;;62.15;26.63;;;4.40;99.90;;;;;;5036557;28;20048;-83
2023/01/03 11:44:59;;;;;;;63.70;27.70;;;4.40;99.90;;;;;;5048661;28;20565;-83
2023/01/03 11:47:36;;;;;;;61.38;27.05;;;4.50;99.90;;;;;;5045079;28;20477;-84
2023/01/03 11:50:25;;;;;;;61.92;27.17;;;4.50;99.90;;;;;;5040155;28;20045;-83
2023/01/03 11:52:56;;;;;;;64.32;27.58;;;4.60;99.90;;;;;;5050099;28;20094;-83
2023/01/03 11:55:38;;;;;;;65.13;28.55;;;4.60;99.90;;;;;;5050437;28;20638;-83
2023/01/03 11:58:46;;;;;;;61.83;26.90;;;4.60;99.90;;;;;;5033184;28;20044;-83
2023/01/03 12:01:17;;;;;;;63.45;28.20;;;4.70;99.90;;;;;;5039993;28;20071;-83
2023/01/03 12:04:04;;;;;;;62.63;28.33;;;4.70;99.90;;;;;;5051126;28;20041;-83
2023/01/03 12:07:06;;;;;;;62.45;28.48;;;4.80;99.90;;;;;;5050935;28;20045;-83
2023/01/03 12:10:01;;;;;;;62.92;28.02;;;4.90;99.90;;;;;;5044112;28;20040;-82
2023/01/03 12:12:56;;;;;;;64.85;28.33;;;4.90;99.90;;;;;;5030837;28;20116;-83
2023/01/03 12:15:23;;;;;;;63.45;27.75;;;4.90;99.90;;;;;;5034142;28;20038;-83
2023/01/03 12:18:00;;;;;;;69.10;28.55;;;5.00;99.90;;;;;;5014092;28;20407;-83
2023/01/03 12:20:34;;;;;;;65.32;28.52;;;5.00;99.90;;;;;;5032050;28;20544;-83
2023/01/03 12:23:11;;;;;;;59.33;25.83;;;5.10;99.90;;;;;;5047124;28;20040;-83
2023/01/03 12:25:41;;;;;;;62.08;28.23;;;5.10;99.90;;;;;;5048662;28;20037;-82
2023/01/03 12:28:17;;;;;;;65.47;27.55;;;5.10;99.90;;;;;;5047467;28;20155;-83
2023/01/03 12:31:02;;;;;;;58.42;26.10;;;5.20;99.90;;;;;;5022761;28;20044;-83
2023/01/03 12:34:06;;;;;;;57.80;26.33;;;5.20;99.90;;;;;;5050070;28;20612;-83
2023/01/03 12:37:09;;;;;;;57.20;26.77;;;5.20;99.90;;;;;;5050961;28;20437;-83
2023/01/03 12:39:48;;;;;;;61.58;26.05;;;5.30;99.90;;;;;;5050537;28;20398;-83
2023/01/03 12:42:31;;;;;;;56.92;25.10;;;5.40;99.90;;;;;;5050255;28;20480;-83
2023/01/03 12:45:06;;;;;;;62.47;26.50;;;5.40;99.90;;;;;;5049378;28;20049;-82
2023/01/03 12:47:49;;;;;;;51.90;24.20;;;5.40;99.90;;;;;;5050659;28;20116;-83
2023/01/03 12:50:24;;;;;;;51.90;24.63;;;5.40;99.90;;;;;;5050972;28;20095;-84
2023/01/03 12:52:59;;;;;;;55.35;25.52;;;5.50;99.90;;;;;;5051519;28;20605;-82
2023/01/03 12:55:47;;;;;;;54.05;23.50;;;5.50;99.90;;;;;;5051844;28;20045;-82
2023/01/03 12:58:35;;;;;;;45.40;22.08;;;5.50;99.90;;;;;;5045908;28;20466;-83
2023/01/03 13:01:10;;;;;;;43.63;22.05;;;5.50;99.90;;;;;;5049419;28;20056;-83
2023/01/03 13:03:41;;;;;;;49.50;22.13;;;5.60;99.90;;;;;;5050737;28;20395;-82
2023/01/03 13:06:26;;;;;;;44.80;22.50;;;5.60;99.90;;;;;;5037533;28;20052;-83
2023/01/03 13:09:17;;;;;;;49.70;21.73;;;5.60;99.90;;;;;;5046585;28;20056;-83
2023/01/03 13:11:49;;;;;;;41.83;20.95;;;5.60;99.90;;;;;;5049804;28;20037;-83
2023/01/03 13:14:23;;;;;;;43.05;21.17;;;5.60;99.90;;;;;;5050904;28;20044;-82
2023/01/03 13:16:51;;;;;;;40.72;20.17;;;5.60;99.90;;;;;;5051149;28;20130;-83
2023/01/03 13:19:20;;;;;;;40.85;19.15;;;5.80;99.90;;;;;;5047322;28;20102;-82
2023/01/03 13:21:59;;;;;;;38.58;19.73;;;5.70;99.90;;;;;;5052391;28;20543;-83
2023/01/03 13:24:45;;;;;;;36.35;18.80;;;5.80;99.90;;;;;;5027466;28;20128;-83
2023/01/03 13:27:32;;;;;;;36.55;18.40;;;5.80;99.90;;;;;;5048100;28;20094;-83
2023/01/03 13:29:58;;;;;;;36.58;18.38;;;5.90;99.90;;;;;;5034196;28;20068;-82
2023/01/03 13:33:02;;;;;;;39.47;17.25;;;5.90;99.90;;;;;;5041874;28;20065;-83
2023/01/03 13:35:33;;;;;;;;;;;5.90;99.90;;;;;;5049402;28;20073;-83
2023/01/03 13:38:17;;;;;;;30.88;16.30;;;6.00;99.90;;;;;;5050613;28;20008;-82
2023/01/03 13:40:47;;;;;;;32.95;17.35;;;6.00;99.90;;;;;;5054628;28;20118;-83
2023/01/03 13:43:17;;;;;;;37.10;18.65;;;6.00;99.90;;;;;;5054923;28;20047;-83
2023/01/03 13:45:42;;;;;;;35.67;18.13;;;6.00;99.90;;;;;;5044116;28;20610;-82
2023/01/03 13:48:31;;;;;;;36.03;18.52;;;6.00;99.90;;;;;;5030296;28;20040;-83
2023/01/03 13:51:25;;;;;;;33.08;17.48;;;6.10;99.90;;;;;;5032239;28;20069;-82
2023/01/03 13:54:00;;;;;;;35.03;17.83;;;6.10;99.90;;;;;;5040340;28;20037;-83
2023/01/03 13:56:53;;;;;;;34.50;17.10;;;6.10;99.90;;;;;;5045511;28;20037;-82
2023/01/03 13:59:33;;;;;;;35.38;16.77;;;6.00;99.90;;;;;;5042614;28;20490;-82
2023/01/03 14:02:05;;;;;;;31.92;17.70;;;6.00;99.90;;;;;;5028999;28;20052;-82
2023/01/03 14:05:22;;;;;;;35.55;17.42;;;6.00;99.90;;;;;;5045348;28;20124;-83
2023/01/03 14:08:20;;;;;;;35.17;17.65;;;6.00;99.90;;;;;;4988484;28;20072;-82
2023/01/03 14:11:23;;;;;;;30.13;16.75;;;6.10;99.90;;;;;;4984220;28;20072;-82